Terminal Aerodrome Forecast
Issued by NWS Burlington, VT

Home | Current Version | Previous Version | Text Only | Print | Product List | Glossary On
Versions: 1 2 3 4 5 6 7 8 9 10 11 12 13 14 15 16
304
FTUS41 KBTV 311131
TAFBTV
TAF
KBTV 311131Z 3112/0112 19008KT P6SM VCSH BKN050 OVC080
      TEMPO 3112/3116 5SM -SHRA BR BKN045
     FM312300 20005KT P6SM VCSH SCT050 BKN080
     FM010500 34004KT P6SM OVC040
     FM010900 35005KT P6SM OVC030=

USA.gov is the U.S. government's official web portal to all federal, state and local government web resources and services.